createdAt,value
2016-05-14T00:00:56.061Z,0
2016-05-14T00:01:56.080Z,0
2016-05-14T00:02:55.911Z,0
2016-05-14T00:03:56.132Z,0
2016-05-14T00:04:56.151Z,0
2016-05-14T00:05:55.715Z,0
2016-05-14T00:06:56.235Z,0
2016-05-14T00:07:56.080Z,0
2016-05-14T00:08:56.240Z,0
2016-05-14T00:09:55.960Z,0
2016-05-14T00:11:56.310Z,0
2016-05-14T00:12:56.188Z,0
2016-05-14T00:13:56.222Z,0
2016-05-14T00:14:56.381Z,0
2016-05-14T00:15:56.415Z,0
2016-05-14T00:16:56.276Z,0
2016-05-14T00:18:56.470Z,0
2016-05-14T00:19:56.488Z,0
2016-05-14T00:20:56.522Z,0
2016-05-14T00:21:56.384Z,0
2016-05-14T00:23:10.746Z,0
2016-05-14T00:23:56.593Z,0
2016-05-14T00:25:56.488Z,0
2016-05-14T00:27:10.834Z,0
2016-05-14T00:27:56.666Z,0
2016-05-14T00:28:56.528Z,0
2016-05-14T00:29:56.717Z,0
2016-05-14T00:31:25.114Z,0
2016-05-14T00:32:10.958Z,0
2016-05-14T00:32:56.633Z,0
2016-05-14T00:34:10.682Z,0
2016-05-14T00:34:56.684Z,0
2016-05-14T00:35:56.547Z,0
2016-05-14T00:36:56.877Z,0
2016-05-14T00:37:56.927Z,0
2016-05-14T00:38:56.946Z,0
2016-05-14T00:39:56.932Z,0
2016-05-14T00:41:10.997Z,0
2016-05-14T00:42:11.016Z,0
2016-05-14T00:45:11.086Z,0
2016-05-14T00:45:56.918Z,0
2016-05-14T00:47:11.280Z,0
2016-05-14T00:47:56.970Z,0
2016-05-14T00:48:57.129Z,0
2016-05-14T00:49:57.006Z,0
2016-05-14T00:50:57.040Z,0
2016-05-14T00:52:57.233Z,0
2016-05-14T00:53:57.251Z,0
2016-05-14T00:54:57.285Z,0
2016-05-14T00:55:56.992Z,0
2016-05-14T00:57:57.183Z,0
2016-05-14T00:58:57.374Z,0
2016-05-14T01:00:11.423Z,0
2016-05-14T01:00:57.255Z,0
2016-05-14T01:01:57.289Z,0
2016-05-14T01:03:26.247Z,0
2016-05-14T01:03:57.481Z,0
2016-05-14T01:04:57.358Z,0
2016-05-14T01:05:57.533Z,0
2016-05-14T01:06:57.552Z,0
2016-05-14T01:07:57.555Z,0
2016-05-14T01:08:57.589Z,0
2016-05-14T01:09:57.466Z,0
2016-05-14T01:11:11.813Z,0
2016-05-14T01:11:57.502Z,0
2016-05-14T01:12:57.677Z,0
2016-05-14T01:13:57.696Z,0
2016-05-14T01:14:57.713Z,0
2016-05-14T01:15:57.608Z,0
2016-05-14T01:16:57.610Z,0
2016-05-14T01:19:12.007Z,0
2016-05-14T01:20:57.854Z,0
2016-05-14T01:21:57.717Z,0
2016-05-14T01:22:57.907Z,0
2016-05-14T01:24:12.113Z,0
2016-05-14T01:24:57.944Z,0
2016-05-14T01:25:57.822Z,0
2016-05-14T01:26:57.996Z,0
2016-05-14T01:27:57.873Z,0
2016-05-14T01:28:58.033Z,0
2016-05-14T01:29:58.067Z,0
2016-05-14T01:31:58.104Z,0
2016-05-14T01:32:57.997Z,0
2016-05-14T01:34:12.328Z,0
2016-05-14T01:35:58.192Z,0
2016-05-14T01:36:58.210Z,0
2016-05-14T01:37:58.229Z,0
2016-05-14T01:39:21.044Z,0
2016-05-14T01:39:58.125Z,0
2016-05-14T01:40:58.158Z,0
2016-05-14T01:41:58.334Z,0
2016-05-14T01:42:58.351Z,0
2016-05-14T01:43:58.370Z,0
2016-05-14T01:45:12.419Z,0
2016-05-14T01:45:58.407Z,0
2016-05-14T01:46:58.457Z,0
2016-05-14T01:47:58.756Z,0
2016-05-14T01:49:12.384Z,0
2016-05-14T01:49:58.370Z,0
2016-05-14T01:51:12.718Z,0
2016-05-14T01:51:58.548Z,0
2016-05-14T01:52:58.566Z,0
2016-05-14T01:53:58.428Z,0
2016-05-14T01:54:58.462Z,0
2016-05-14T01:55:58.653Z,0
2016-05-14T01:56:58.670Z,0
2016-05-14T01:57:58.534Z,0
2016-05-14T01:58:58.692Z,0
2016-05-14T01:59:58.742Z,0
2016-05-14T02:01:12.947Z,0
2016-05-14T02:01:58.606Z,0
2016-05-14T02:03:12.828Z,0
2016-05-14T02:03:58.955Z,0
2016-05-14T02:04:58.677Z,0
2016-05-14T02:06:12.882Z,0
2016-05-14T02:06:58.744Z,0
2016-05-14T02:07:58.903Z,0
2016-05-14T02:08:58.922Z,0
2016-05-14T02:09:58.784Z,0
2016-05-14T02:10:58.818Z,0
2016-05-14T02:11:58.992Z,0
2016-05-14T02:12:59.010Z,0
2016-05-14T02:15:13.235Z,0
2016-05-14T02:15:59.097Z,0
2016-05-14T02:17:13.303Z,0
2016-05-14T02:18:13.321Z,0
2016-05-14T02:18:59.668Z,0
2016-05-14T02:20:13.342Z,0
2016-05-14T02:20:59.188Z,0
2016-05-14T02:22:13.394Z,0
2016-05-14T02:22:59.240Z,0
2016-05-14T02:24:13.462Z,0
2016-05-14T02:24:59.293Z,0
2016-05-14T02:25:59.327Z,0
2016-05-14T02:26:59.204Z,0
2016-05-14T02:27:59.191Z,0
2016-05-14T02:29:13.554Z,0
2016-05-14T02:29:59.260Z,0
2016-05-14T02:30:59.262Z,0
2016-05-14T02:31:59.437Z,0
2016-05-14T02:32:59.456Z,0
2016-05-14T02:33:59.192Z,0
2016-05-14T02:34:59.492Z,0
2016-05-14T02:35:59.525Z,0
2016-05-14T02:36:59.388Z,0
2016-05-14T02:38:13.594Z,0
2016-05-14T02:39:13.550Z,0
2016-05-14T02:39:59.615Z,0
2016-05-14T02:40:59.477Z,0
2016-05-14T02:41:59.572Z,0
2016-05-14T02:42:59.716Z,0
2016-05-14T02:43:59.672Z,0
2016-05-14T02:44:59.831Z,0
2016-05-14T02:45:59.865Z,0
2016-05-14T02:46:59.758Z,0
2016-05-14T02:47:59.636Z,0
2016-05-14T02:48:59.998Z,0
2016-05-14T02:49:59.688Z,0
2016-05-14T02:50:59.862Z,0
2016-05-14T02:51:59.881Z,0
2016-05-14T02:52:59.900Z,0
2016-05-14T02:54:13.948Z,0
2016-05-14T02:56:13.845Z,0
2016-05-14T02:56:59.832Z,0
2016-05-14T02:58:14.210Z,0
2016-05-14T02:58:59.868Z,0
2016-05-14T03:00:00.059Z,0
2016-05-14T03:00:59.780Z,0
2016-05-14T03:01:59.955Z,0
2016-05-14T03:02:59.817Z,0
2016-05-14T03:03:59.820Z,0
2016-05-14T03:05:00.166Z,0
2016-05-14T03:06:00.059Z,0
2016-05-14T03:07:14.406Z,0
2016-05-14T03:08:00.236Z,5
2016-05-14T03:09:14.427Z,5
2016-05-14T03:10:00.133Z,5
2016-05-14T03:11:00.291Z,5
2016-05-14T03:12:00.169Z,5
2016-05-14T03:13:00.188Z,5
2016-05-14T03:14:00.066Z,5
2016-05-14T03:15:00.380Z,10
2016-05-14T03:16:00.243Z,10
2016-05-14T03:17:00.433Z,10
2016-05-14T03:18:00.466Z,10
2016-05-14T03:19:00.204Z,10
2016-05-14T03:20:00.503Z,15
2016-05-14T03:21:14.709Z,15
2016-05-14T03:22:14.727Z,15
2016-05-14T03:23:00.418Z,15
2016-05-14T03:25:14.657Z,20
2016-05-14T03:26:00.473Z,20
2016-05-14T03:27:00.647Z,20
2016-05-14T03:28:00.681Z,20
2016-05-14T03:29:00.699Z,20
2016-05-14T03:31:00.752Z,25
2016-05-14T03:32:14.942Z,25
2016-05-14T03:33:00.789Z,25
2016-05-14T03:34:01.009Z,30
2016-05-14T03:35:15.012Z,30
2016-05-14T03:36:00.718Z,35
2016-05-14T03:37:00.861Z,35
2016-05-14T03:38:00.739Z,35
2016-05-14T03:39:15.101Z,40
2016-05-14T03:40:00.792Z,40
2016-05-14T03:41:14.981Z,40
2016-05-14T03:42:01.016Z,40
2016-05-14T03:43:00.691Z,40
2016-05-14T03:44:00.880Z,40
2016-05-14T03:45:00.899Z,40
2016-05-14T03:46:00.916Z,40
2016-05-14T03:47:01.091Z,45
2016-05-14T03:49:01.346Z,50
2016-05-14T03:50:01.005Z,50
2016-05-14T03:51:01.180Z,50
2016-05-14T03:52:01.074Z,55
2016-05-14T03:53:01.232Z,55
2016-05-14T03:54:01.251Z,60
2016-05-14T03:55:01.269Z,65
2016-05-14T03:56:01.287Z,70
2016-05-14T03:57:15.510Z,75
2016-05-14T03:58:01.339Z,80
2016-05-14T03:59:01.201Z,85
2016-05-14T04:00:01.221Z,95
2016-05-14T04:01:15.442Z,100
2016-05-14T04:02:15.617Z,110
2016-05-14T04:03:01.447Z,115
2016-05-14T04:05:15.687Z,125
2016-05-14T04:06:01.377Z,130
2016-05-14T04:07:01.536Z,130
2016-05-14T04:09:01.589Z,135
2016-05-14T04:10:01.623Z,140
2016-05-14T04:11:01.469Z,140
2016-05-14T04:12:01.487Z,145
2016-05-14T04:13:15.849Z,150
2016-05-14T04:14:01.539Z,150
2016-05-14T04:15:01.401Z,160
2016-05-14T04:16:15.763Z,155
2016-05-14T04:17:01.766Z,155
2016-05-14T04:18:01.785Z,155
2016-05-14T04:19:01.677Z,155
2016-05-14T04:20:01.686Z,160
2016-05-14T04:21:01.592Z,160
2016-05-14T04:22:16.152Z,165
2016-05-14T04:23:02.026Z,165
2016-05-14T04:24:02.103Z,165
2016-05-14T04:25:16.348Z,170
2016-05-14T04:26:02.210Z,200
2016-05-14T04:27:02.227Z,170
2016-05-14T04:28:16.450Z,175
2016-05-14T04:29:16.327Z,180
2016-05-14T04:30:02.030Z,185
2016-05-14T04:31:02.211Z,180
2016-05-14T04:32:02.407Z,180
2016-05-14T04:33:02.431Z,180
2016-05-14T04:34:16.486Z,185
2016-05-14T04:35:02.479Z,190
2016-05-14T04:36:02.499Z,200
2016-05-14T04:37:16.723Z,210
2016-05-14T04:39:02.576Z,220
2016-05-14T04:40:02.455Z,240
2016-05-14T04:41:02.490Z,260
2016-05-14T04:42:02.509Z,280
2016-05-14T04:43:16.856Z,260
2016-05-14T04:44:16.578Z,350
2016-05-14T04:45:02.723Z,635
2016-05-14T04:46:02.584Z,905
2016-05-14T04:47:02.760Z,965
2016-05-14T04:48:16.981Z,965
2016-05-14T04:49:03.407Z,955
2016-05-14T04:50:16.863Z,990
2016-05-14T04:51:02.709Z,1010
2016-05-14T04:52:02.883Z,1030
2016-05-14T04:53:02.917Z,1030
2016-05-14T04:54:02.779Z,1030
2016-05-14T04:55:31.329Z,1085
2016-05-14T04:56:02.988Z,1100
2016-05-14T04:57:03.022Z,1070
2016-05-14T04:58:03.040Z,1110
2016-05-14T04:59:03.043Z,1145
2016-05-14T05:00:17.279Z,1150
2016-05-14T05:02:03.145Z,1130
2016-05-14T05:03:02.991Z,1120
2016-05-14T05:04:17.229Z,1170
2016-05-14T05:05:03.200Z,1215
2016-05-14T05:07:17.440Z,1230
2016-05-14T05:08:03.286Z,1295
2016-05-14T05:09:03.320Z,1320
2016-05-14T05:10:03.322Z,1305
2016-05-14T05:11:03.356Z,1305
2016-05-14T05:12:03.391Z,1235
2016-05-14T05:13:17.597Z,1310
2016-05-14T05:14:03.459Z,1325
2016-05-14T05:15:03.461Z,1275
2016-05-14T05:16:17.683Z,1295
2016-05-14T05:17:03.513Z,1145
2016-05-14T05:18:03.391Z,1315
2016-05-14T05:19:03.424Z,1345
2016-05-14T05:20:03.444Z,1445
2016-05-14T05:21:03.321Z,1425
2016-05-14T05:22:03.496Z,1450
2016-05-14T05:23:17.733Z,1485
2016-05-14T05:24:17.907Z,1420
2016-05-14T05:25:03.738Z,1435
2016-05-14T05:26:03.615Z,1505
2016-05-14T05:28:03.512Z,1515
2016-05-14T05:29:03.858Z,1535
2016-05-14T05:30:03.595Z,1530
2016-05-14T05:31:03.910Z,1525
2016-05-14T05:32:17.976Z,1545
2016-05-14T05:34:17.731Z,1500
2016-05-14T05:35:04.031Z,1525
2016-05-14T05:36:03.908Z,1590
2016-05-14T05:37:03.926Z,1620
2016-05-14T05:38:03.961Z,1560
2016-05-14T05:39:03.994Z,1590
2016-05-14T05:40:18.356Z,1685
2016-05-14T05:41:18.389Z,1690
2016-05-14T05:42:18.424Z,1640
2016-05-14T05:43:04.162Z,1695
2016-05-14T05:44:32.664Z,1670
2016-05-14T05:45:04.167Z,1665
2016-05-14T05:46:04.357Z,1685
2016-05-14T05:47:04.375Z,1745
2016-05-14T05:48:18.597Z,1695
2016-05-14T05:49:04.755Z,1670
2016-05-14T05:50:04.493Z,1150
2016-05-14T05:51:04.510Z,1670
2016-05-14T05:52:04.405Z,1605
2016-05-14T05:53:04.423Z,990
2016-05-14T05:54:04.582Z,1460
2016-05-14T05:55:04.647Z,1695
2016-05-14T05:56:04.665Z,1800
2016-05-14T05:58:04.561Z,1195
2016-05-14T05:59:18.782Z,1010
2016-05-14T06:00:18.957Z,1685
2016-05-14T06:01:04.803Z,1945
2016-05-14T06:02:04.682Z,605
2016-05-14T06:03:04.715Z,650
2016-05-14T06:04:18.796Z,610
2016-05-14T06:05:04.940Z,695
2016-05-14T06:06:19.161Z,1080
2016-05-14T06:07:04.992Z,570
2016-05-14T06:08:05.010Z,395
2016-05-14T06:09:05.059Z,715
2016-05-14T06:10:04.797Z,620
2016-05-14T06:12:19.177Z,140
2016-05-14T06:13:05.164Z,140
2016-05-14T06:14:05.058Z,185
2016-05-14T06:15:05.076Z,190
2016-05-14T06:16:19.438Z,175
2016-05-14T06:17:19.472Z,185
2016-05-14T06:18:19.364Z,185
2016-05-14T06:19:19.367Z,185
2016-05-14T06:20:19.416Z,180
2016-05-14T06:21:19.451Z,155
2016-05-14T06:22:05.250Z,145
2016-05-14T06:23:05.285Z,130
2016-05-14T06:24:05.475Z,135
2016-05-14T06:25:05.508Z,130
2016-05-14T06:26:05.527Z,135
2016-05-14T06:27:05.560Z,130
2016-05-14T06:28:05.579Z,130
2016-05-14T06:30:05.631Z,135
2016-05-14T06:31:05.368Z,130
2016-05-14T06:32:05.668Z,130
2016-05-14T06:33:20.593Z,130
2016-05-14T06:34:06.190Z,135
2016-05-14T06:35:05.614Z,145
2016-05-14T06:36:20.007Z,170
2016-05-14T06:37:05.806Z,190
2016-05-14T06:38:20.012Z,250
2016-05-14T06:39:05.859Z,315
2016-05-14T06:40:05.877Z,445
2016-05-14T06:41:05.895Z,290
2016-05-14T06:42:05.944Z,215
2016-05-14T06:43:05.963Z,170
2016-05-14T06:44:05.982Z,150
2016-05-14T06:45:20.187Z,145
2016-05-14T06:46:06.034Z,145
2016-05-14T06:47:20.239Z,145
2016-05-14T06:48:20.039Z,150
2016-05-14T06:49:06.558Z,155
2016-05-14T06:50:06.154Z,155
2016-05-14T06:51:20.328Z,150
2016-05-14T06:52:06.174Z,160
2016-05-14T06:53:06.209Z,160
2016-05-14T06:54:06.228Z,150
2016-05-14T06:55:06.246Z,140
2016-05-14T06:56:06.280Z,130
2016-05-14T06:57:06.298Z,125
2016-05-14T06:58:06.316Z,120
2016-05-14T06:59:06.366Z,120
2016-05-14T07:00:06.227Z,120
2016-05-14T07:01:06.402Z,120
2016-05-14T07:02:06.436Z,125
2016-05-14T07:03:06.439Z,130
2016-05-14T07:04:20.504Z,140
2016-05-14T07:05:20.522Z,130
2016-05-14T07:06:06.526Z,120
2016-05-14T07:07:34.903Z,135
2016-05-14T07:08:06.593Z,140
2016-05-14T07:09:06.581Z,140
2016-05-14T07:10:06.161Z,135
2016-05-14T07:11:06.648Z,130
2016-05-14T07:12:06.666Z,120
2016-05-14T07:13:06.700Z,120
2016-05-14T07:14:06.703Z,115
2016-05-14T07:15:06.581Z,115
2016-05-14T07:16:20.787Z,115
2016-05-14T07:17:06.789Z,115
2016-05-14T07:18:21.308Z,120
2016-05-14T07:19:06.858Z,120
2016-05-14T07:20:21.047Z,120
2016-05-14T07:21:06.878Z,120
2016-05-14T07:22:21.083Z,130
2016-05-14T07:23:21.102Z,135
2016-05-14T07:24:06.933Z,135
2016-05-14T07:25:06.967Z,130
2016-05-14T07:26:06.830Z,135
2016-05-14T07:27:07.018Z,130
2016-05-14T07:28:06.882Z,125
2016-05-14T07:29:07.056Z,125
2016-05-14T07:31:07.140Z,145
2016-05-14T07:32:07.142Z,140
2016-05-14T07:33:07.176Z,145
2016-05-14T07:34:21.366Z,165
2016-05-14T07:35:07.196Z,160
2016-05-14T07:36:07.231Z,155
2016-05-14T07:37:07.249Z,160
2016-05-14T07:38:07.127Z,160
2016-05-14T07:39:21.490Z,160
2016-05-14T07:40:07.335Z,170
2016-05-14T07:41:07.354Z,185
2016-05-14T07:42:07.372Z,210
2016-05-14T07:43:07.405Z,195
2016-05-14T07:44:07.440Z,200
2016-05-14T07:45:07.442Z,205
2016-05-14T07:46:07.476Z,205
2016-05-14T07:47:07.511Z,225
2016-05-14T07:48:07.529Z,225
2016-05-14T07:50:07.566Z,210
2016-05-14T07:52:07.461Z,190
2016-05-14T07:53:07.495Z,215
2016-05-14T07:54:36.030Z,255
2016-05-14T07:55:07.532Z,275
2016-05-14T07:56:21.894Z,260
2016-05-14T07:57:07.569Z,255
2016-05-14T07:58:07.758Z,275
2016-05-14T07:59:07.793Z,325
2016-05-14T08:00:07.827Z,245
2016-05-14T08:01:07.846Z,245
2016-05-14T08:02:07.691Z,295
2016-05-14T08:03:07.882Z,360
2016-05-14T08:04:07.760Z,310
2016-05-14T08:05:07.934Z,280
2016-05-14T08:06:07.968Z,280
2016-05-14T08:07:07.814Z,355
2016-05-14T08:08:07.832Z,385
2016-05-14T08:09:07.867Z,320
2016-05-14T08:10:08.041Z,305
2016-05-14T08:11:22.263Z,415
2016-05-14T08:12:07.937Z,580
2016-05-14T08:14:22.317Z,270
2016-05-14T08:15:08.008Z,265
2016-05-14T08:16:08.026Z,255
2016-05-14T08:17:08.044Z,225
2016-05-14T08:18:22.687Z,185
2016-05-14T08:19:08.222Z,180
2016-05-14T08:20:22.458Z,190
2016-05-14T08:21:22.320Z,205
2016-05-14T08:22:08.323Z,210
2016-05-14T08:23:08.342Z,240
2016-05-14T08:24:22.407Z,220
2016-05-14T08:25:08.238Z,220
2016-05-14T08:26:22.600Z,230
2016-05-14T08:27:08.461Z,210
2016-05-14T08:28:08.324Z,195
2016-05-14T08:29:08.341Z,195
2016-05-14T08:30:08.516Z,205
2016-05-14T08:31:08.535Z,220
2016-05-14T08:32:08.413Z,230
2016-05-14T08:33:08.603Z,200
2016-05-14T08:34:09.310Z,195
2016-05-14T08:35:08.343Z,220
2016-05-14T08:36:22.690Z,250
2016-05-14T08:39:08.588Z,255
2016-05-14T08:40:22.950Z,250
2016-05-14T08:41:22.953Z,265
2016-05-14T08:42:37.174Z,240
2016-05-14T08:43:23.020Z,235
2016-05-14T08:44:08.851Z,230
2016-05-14T08:45:08.901Z,240
2016-05-14T08:47:08.937Z,305
2016-05-14T08:48:08.956Z,255
2016-05-14T08:50:08.852Z,285
2016-05-14T08:51:09.026Z,310
2016-05-14T08:52:23.091Z,375
2016-05-14T08:53:08.922Z,370
2016-05-14T08:54:09.113Z,310
2016-05-14T08:55:23.303Z,255
2016-05-14T08:56:09.149Z,255
2016-05-14T08:57:09.167Z,235
2016-05-14T08:58:37.561Z,270
2016-05-14T08:59:09.205Z,270
2016-05-14T09:00:09.238Z,220
2016-05-14T09:01:09.257Z,185
2016-05-14T09:02:09.290Z,155
2016-05-14T09:03:09.308Z,145
2016-05-14T09:04:09.561Z,160
2016-05-14T09:05:09.204Z,165
2016-05-14T09:06:09.395Z,170
2016-05-14T09:08:09.416Z,190
2016-05-14T09:09:23.638Z,185
2016-05-14T09:10:09.171Z,195
2016-05-14T09:11:09.502Z,230
2016-05-14T09:12:23.707Z,255
2016-05-14T09:13:23.585Z,250
2016-05-14T09:14:23.760Z,230
2016-05-14T09:15:09.434Z,225
2016-05-14T09:16:09.625Z,205
2016-05-14T09:17:09.642Z,190
2016-05-14T09:18:09.677Z,180
2016-05-14T09:19:09.571Z,170
2016-05-14T09:21:09.748Z,195
2016-05-14T09:22:09.766Z,245
2016-05-14T09:23:23.816Z,335
2016-05-14T09:24:09.803Z,420
2016-05-14T09:26:24.058Z,415
2016-05-14T09:27:24.060Z,365
2016-05-14T09:28:09.922Z,340
2016-05-14T09:29:23.957Z,380
2016-05-14T09:30:09.959Z,410
2016-05-14T09:31:09.822Z,425
2016-05-14T09:32:10.011Z,430
2016-05-14T09:33:09.889Z,445
2016-05-14T09:34:09.861Z,445
2016-05-14T09:35:10.113Z,410
2016-05-14T09:36:09.944Z,420
2016-05-14T09:37:10.118Z,435
2016-05-14T09:38:09.981Z,470
2016-05-14T09:39:10.015Z,655
2016-05-14T09:40:10.204Z,605
2016-05-14T09:41:10.239Z,695
2016-05-14T09:42:24.428Z,570
2016-05-14T09:43:10.259Z,550
2016-05-14T09:45:10.328Z,395
2016-05-14T09:46:10.331Z,365
2016-05-14T09:47:10.364Z,540
2016-05-14T09:48:11.008Z,455
2016-05-14T09:49:10.495Z,645
2016-05-14T09:51:10.516Z,685
2016-05-14T09:52:10.487Z,590
2016-05-14T09:53:10.067Z,515
2016-05-14T09:54:10.539Z,450
2016-05-14T09:55:10.573Z,635
2016-05-14T09:56:10.592Z,475
2016-05-14T09:57:10.610Z,370
2016-05-14T09:58:24.831Z,365
2016-05-14T09:59:10.366Z,480
2016-05-14T10:00:10.711Z,580
2016-05-14T10:01:24.746Z,515
2016-05-14T10:02:24.921Z,415
2016-05-14T10:03:10.766Z,570
2016-05-14T10:04:10.801Z,390
2016-05-14T10:05:10.663Z,345
2016-05-14T10:06:10.712Z,330
2016-05-14T10:07:39.246Z,505
2016-05-14T10:08:10.905Z,360
2016-05-14T10:09:10.783Z,325
2016-05-14T10:10:10.943Z,495
2016-05-14T10:11:10.975Z,490
2016-05-14T10:12:25.198Z,305
2016-05-14T10:13:11.029Z,365
2016-05-14T10:14:10.906Z,500
2016-05-14T10:15:11.081Z,325
2016-05-14T10:16:11.114Z,510
2016-05-14T10:17:39.336Z,515
2016-05-14T10:18:10.995Z,520
2016-05-14T10:19:11.981Z,510
2016-05-14T10:20:11.219Z,505
2016-05-14T10:21:25.408Z,490
2016-05-14T10:22:10.942Z,470
2016-05-14T10:23:11.290Z,460
2016-05-14T10:24:10.698Z,450
2016-05-14T10:25:11.170Z,445
2016-05-14T10:26:25.547Z,435
2016-05-14T10:28:11.412Z,420
2016-05-14T10:29:11.118Z,415
2016-05-14T10:31:11.499Z,435
2016-05-14T10:32:25.704Z,440
2016-05-14T10:34:11.116Z,470
2016-05-14T10:35:25.634Z,485
2016-05-14T10:36:11.637Z,485
2016-05-14T10:37:11.499Z,460
2016-05-14T10:38:11.502Z,430
2016-05-14T10:40:11.741Z,425
2016-05-14T10:41:11.588Z,345
2016-05-14T10:42:25.654Z,440
2016-05-14T10:43:11.796Z,435
2016-05-14T10:45:11.864Z,425
2016-05-14T10:46:11.742Z,425
2016-05-14T10:47:11.917Z,385
2016-05-14T10:48:11.778Z,300
2016-05-14T10:49:26.140Z,445
2016-05-14T10:50:11.986Z,315
2016-05-14T10:51:12.020Z,430
2016-05-14T10:52:26.212Z,305
2016-05-14T10:53:12.073Z,275
2016-05-14T10:54:12.091Z,290
2016-05-14T10:55:12.125Z,400
2016-05-14T10:56:12.144Z,330
2016-05-14T10:57:26.350Z,355
2016-05-14T10:58:26.383Z,365
2016-05-14T10:59:12.058Z,355
2016-05-14T11:00:12.248Z,340
2016-05-14T11:01:12.267Z,335
2016-05-14T11:02:26.472Z,330
2016-05-14T11:03:12.319Z,235
2016-05-14T11:04:26.383Z,345
2016-05-14T11:05:12.215Z,350
2016-05-14T11:06:12.405Z,340
2016-05-14T11:07:12.438Z,255
2016-05-14T11:08:12.442Z,330
2016-05-14T11:09:12.318Z,245
2016-05-14T11:10:12.509Z,325
2016-05-14T11:11:12.544Z,270
2016-05-14T11:12:12.546Z,330
2016-05-14T11:13:12.580Z,275
2016-05-14T11:14:12.598Z,245
2016-05-14T11:15:12.492Z,280
2016-05-14T11:16:12.495Z,305
2016-05-14T11:17:12.716Z,305
2016-05-14T11:18:12.703Z,280
2016-05-14T11:19:13.299Z,295
2016-05-14T11:20:12.740Z,300
2016-05-14T11:21:12.789Z,355
2016-05-14T11:22:12.807Z,350
2016-05-14T11:23:12.841Z,345
2016-05-14T11:24:12.859Z,295
2016-05-14T11:25:12.878Z,315
2016-05-14T11:26:12.912Z,320
2016-05-14T11:27:12.790Z,325
2016-05-14T11:28:12.948Z,315
2016-05-14T11:29:12.966Z,310
2016-05-14T11:30:12.688Z,295
2016-05-14T11:31:13.019Z,285
2016-05-14T11:32:12.897Z,270
2016-05-14T11:33:12.915Z,265
2016-05-14T11:34:27.433Z,255
2016-05-14T11:35:27.155Z,240
2016-05-14T11:36:27.345Z,260
2016-05-14T11:37:13.176Z,260
2016-05-14T11:38:13.194Z,260
2016-05-14T11:39:27.416Z,260
2016-05-14T11:41:13.280Z,255
2016-05-14T11:42:13.157Z,255
2016-05-14T11:44:27.538Z,255
2016-05-14T11:45:13.213Z,255
2016-05-14T11:46:13.403Z,235
2016-05-14T11:47:13.281Z,275
2016-05-14T11:48:28.127Z,290
2016-05-14T11:49:13.662Z,285
2016-05-14T11:50:13.507Z,285
2016-05-14T11:51:13.526Z,285
2016-05-14T11:52:27.592Z,305
2016-05-14T11:53:13.579Z,260
2016-05-14T11:54:13.456Z,305
2016-05-14T11:55:13.646Z,240
2016-05-14T11:56:27.852Z,225
2016-05-14T11:57:13.667Z,220
2016-05-14T11:58:13.717Z,280
2016-05-14T11:59:13.422Z,275
2016-05-14T12:00:13.753Z,265
2016-05-14T12:01:13.786Z,265
2016-05-14T12:02:13.805Z,255
2016-05-14T12:04:13.592Z,260
2016-05-14T12:05:28.063Z,275
2016-05-14T12:06:13.910Z,300
2016-05-14T12:07:13.772Z,315
2016-05-14T12:08:42.321Z,290
2016-05-14T12:09:13.981Z,255
2016-05-14T12:10:13.857Z,250
2016-05-14T12:12:14.051Z,345
2016-05-14T12:13:14.069Z,350
2016-05-14T12:14:28.307Z,345
2016-05-14T12:15:13.997Z,340
2016-05-14T12:16:14.157Z,345
2016-05-14T12:17:14.174Z,320
2016-05-14T12:18:13.912Z,250
2016-05-14T12:19:15.070Z,230
2016-05-14T12:20:28.448Z,230
2016-05-14T12:21:14.279Z,270
2016-05-14T12:22:14.156Z,295
2016-05-14T12:23:28.534Z,210
2016-05-14T12:24:28.553Z,200
2016-05-14T12:25:14.383Z,200
2016-05-14T12:26:14.401Z,265
2016-05-14T12:27:14.279Z,270
2016-05-14T12:28:14.469Z,280
2016-05-14T12:29:14.316Z,285
2016-05-14T12:30:14.522Z,290
2016-05-14T12:31:28.414Z,295
2016-05-14T12:32:28.589Z,280
2016-05-14T12:33:14.435Z,275
2016-05-14T12:34:15.813Z,265
2016-05-14T12:35:14.488Z,260
2016-05-14T12:36:14.663Z,225
2016-05-14T12:38:14.715Z,270
2016-05-14T12:39:28.608Z,270
2016-05-14T12:40:14.767Z,290
2016-05-14T12:41:14.786Z,215
2016-05-14T12:42:14.663Z,225
2016-05-14T12:43:14.822Z,230
2016-05-14T12:44:14.716Z,225
2016-05-14T12:45:14.874Z,225
2016-05-14T12:46:14.908Z,225
2016-05-14T12:47:14.785Z,230
2016-05-14T12:48:29.195Z,320
2016-05-14T12:49:15.010Z,335
2016-05-14T12:50:14.856Z,345
2016-05-14T12:51:15.047Z,280
2016-05-14T12:52:14.753Z,215
2016-05-14T12:53:14.926Z,200
2016-05-14T12:54:15.101Z,265
2016-05-14T12:55:15.136Z,195
2016-05-14T12:56:29.342Z,235
2016-05-14T12:57:15.187Z,185
2016-05-14T12:58:15.065Z,265
2016-05-14T12:59:15.068Z,190
2016-05-14T13:00:29.445Z,210
2016-05-14T13:01:14.980Z,240
2016-05-14T13:02:15.155Z,230
2016-05-14T13:03:15.344Z,305
2016-05-14T13:04:15.222Z,270
2016-05-14T13:05:15.397Z,290
2016-05-14T13:06:15.416Z,280
2016-05-14T13:07:15.449Z,180
2016-05-14T13:08:15.467Z,260
2016-05-14T13:09:15.470Z,265
2016-05-14T13:10:29.676Z,170
2016-05-14T13:11:29.725Z,185
2016-05-14T13:12:15.385Z,165
2016-05-14T13:13:15.449Z,170
2016-05-14T13:14:15.593Z,175
2016-05-14T13:16:15.427Z,180
2016-05-14T13:17:15.570Z,200
2016-05-14T13:18:15.713Z,195
2016-05-14T13:19:15.716Z,260
2016-05-14T13:20:15.593Z,220
2016-05-14T13:21:16.096Z,215
2016-05-14T13:22:29.990Z,180
2016-05-14T13:23:30.007Z,175
2016-05-14T13:25:15.873Z,180
2016-05-14T13:26:15.747Z,190
2016-05-14T13:27:30.007Z,185
2016-05-14T13:28:16.033Z,200
2016-05-14T13:29:15.965Z,200
2016-05-14T13:30:16.148Z,205
2016-05-14T13:31:16.212Z,205
2016-05-14T13:32:16.261Z,210
2016-05-14T13:33:16.293Z,215
2016-05-14T13:34:16.653Z,205
2016-05-14T13:36:16.403Z,165
2016-05-14T13:37:16.442Z,165
2016-05-14T13:38:30.653Z,160
2016-05-14T13:39:16.332Z,165
2016-05-14T13:40:16.512Z,165
2016-05-14T13:41:16.565Z,180
2016-05-14T13:42:16.586Z,265
2016-05-14T13:43:30.794Z,180
2016-05-14T13:44:30.673Z,185
2016-05-14T13:45:30.834Z,175
2016-05-14T13:46:16.682Z,165
2016-05-14T13:47:16.701Z,160
2016-05-14T13:48:16.595Z,160
2016-05-14T13:49:16.614Z,160
2016-05-14T13:50:16.789Z,160
2016-05-14T13:52:16.827Z,180
2016-05-14T13:53:31.033Z,180
2016-05-14T13:54:31.066Z,185
2016-05-14T13:55:16.897Z,195
2016-05-14T13:57:16.949Z,190
2016-05-14T13:58:16.968Z,190
2016-05-14T13:59:31.189Z,190
2016-05-14T14:00:16.568Z,195
2016-05-14T14:01:16.898Z,195
2016-05-14T14:02:16.620Z,200
2016-05-14T14:03:17.106Z,195
2016-05-14T14:04:31.156Z,195
2016-05-14T14:05:17.017Z,200
2016-05-14T14:06:17.162Z,205
2016-05-14T14:07:31.212Z,210
2016-05-14T14:08:17.214Z,215
2016-05-14T14:09:31.419Z,205
2016-05-14T14:10:17.282Z,210
2016-05-14T14:11:17.128Z,215
2016-05-14T14:12:17.318Z,220
2016-05-14T14:13:17.180Z,225
2016-05-14T14:14:31.542Z,215
2016-05-14T14:15:17.388Z,230
2016-05-14T14:16:17.423Z,245
2016-05-14T14:17:17.441Z,230
2016-05-14T14:18:17.459Z,225
2016-05-14T14:19:17.946Z,215
2016-05-14T14:20:17.355Z,200
2016-05-14T14:21:17.530Z,190
2016-05-14T14:22:17.548Z,190
2016-05-14T14:24:17.288Z,240
2016-05-14T14:25:31.650Z,275
2016-05-14T14:26:17.652Z,195
2016-05-14T14:27:31.858Z,185
2016-05-14T14:28:17.393Z,250
2016-05-14T14:29:17.723Z,280
2016-05-14T14:30:17.741Z,275
2016-05-14T14:31:17.618Z,270
2016-05-14T14:32:17.794Z,210
2016-05-14T14:33:17.828Z,275
2016-05-14T14:34:18.456Z,210
2016-05-14T14:35:17.879Z,205
2016-05-14T14:36:32.087Z,210
2016-05-14T14:37:17.776Z,225
2016-05-14T14:38:17.951Z,215
2016-05-14T14:40:17.987Z,280
2016-05-14T14:41:17.865Z,285
2016-05-14T14:42:18.056Z,220
2016-05-14T14:44:18.075Z,210
2016-05-14T14:45:17.953Z,210
2016-05-14T14:46:32.347Z,210
2016-05-14T14:47:18.005Z,250
2016-05-14T14:48:18.180Z,260
2016-05-14T14:49:18.215Z,220
2016-05-14T14:50:32.436Z,255
2016-05-14T14:51:18.266Z,245
2016-05-14T14:52:18.129Z,250
2016-05-14T14:53:32.335Z,240
2016-05-14T14:54:18.166Z,250
2016-05-14T14:55:18.355Z,245